createdAt,value
2022-08-07T00:01:44.394Z,11.95
2022-08-07T00:04:11.374Z,11.50
2022-08-07T00:06:51.372Z,11.60
2022-08-07T00:09:22.423Z,11.20
2022-08-07T00:11:55.877Z,12.73
2022-08-07T00:14:31.236Z,11.43
2022-08-07T00:17:01.585Z,11.38
2022-08-07T00:19:59.567Z,11.95
2022-08-07T00:22:24.547Z,11.32
2022-08-07T00:25:07.045Z,11.75
2022-08-07T00:27:53.188Z,12.13
2022-08-07T00:30:27.303Z,12.52
2022-08-07T00:32:58.350Z,11.95
2022-08-07T00:35:29.833Z,11.48
2022-08-07T00:37:59.950Z,13.10
2022-08-07T00:40:36.442Z,13.65
2022-08-07T00:44:00.229Z,13.13
2022-08-07T00:46:02.931Z,13.68
2022-08-07T00:48:32.890Z,14.00
2022-08-07T00:51:02.928Z,12.38
2022-08-07T00:53:38.823Z,12.85
2022-08-07T00:56:19.165Z,11.98
2022-08-07T00:58:50.224Z,12.82
2022-08-07T01:01:21.495Z,12.77
2022-08-07T01:03:55.546Z,12.82
2022-08-07T01:06:28.525Z,12.45
2022-08-07T01:09:00.607Z,13.05
2022-08-07T01:12:23.722Z,13.35
2022-08-07T01:14:28.354Z,12.93
2022-08-07T01:16:59.312Z,12.73
2022-08-07T01:19:32.309Z,13.55
2022-08-07T01:22:08.798Z,14.35
2022-08-07T01:24:43.308Z,13.30
2022-08-07T01:27:19.867Z,13.00
2022-08-07T01:29:51.868Z,13.27
2022-08-07T01:32:22.676Z,12.80
2022-08-07T01:34:55.863Z,12.93
2022-08-07T01:37:29.535Z,13.25
2022-08-07T01:40:07.007Z,12.73
2022-08-07T01:42:58.533Z,12.90
2022-08-07T01:45:36.859Z,12.73
2022-08-07T01:48:19.928Z,11.93
2022-08-07T01:51:24.243Z,12.40
2022-08-07T01:54:09.621Z,12.40
2022-08-07T01:56:51.077Z,12.95
2022-08-07T01:59:30.913Z,12.43
2022-08-07T02:02:07.047Z,12.52
2022-08-07T02:04:52.538Z,12.30
2022-08-07T02:07:36.228Z,11.80
2022-08-07T02:10:28.042Z,12.18
2022-08-07T02:13:01.182Z,12.85
2022-08-07T02:15:39.863Z,13.30
2022-08-07T02:18:13.357Z,12.45
2022-08-07T02:20:48.713Z,12.93
2022-08-07T02:23:24.174Z,12.73
2022-08-07T02:26:31.253Z,12.13
2022-08-07T02:28:49.224Z,11.25
2022-08-07T02:31:29.169Z,12.27
2022-08-07T02:34:02.778Z,11.75
2022-08-07T02:36:34.368Z,11.70
2022-08-07T02:39:17.069Z,11.02
2022-08-07T02:42:10.354Z,10.45
2022-08-07T02:44:49.893Z,10.52
2022-08-07T02:47:23.980Z,11.10
2022-08-07T02:50:05.401Z,10.60
2022-08-07T02:52:40.630Z,10.10
2022-08-07T02:55:28.359Z,10.45
2022-08-07T02:58:14.759Z,9.77
2022-08-07T03:00:46.795Z,9.07
2022-08-07T03:03:21.086Z,9.88
2022-08-07T03:05:55.413Z,9.60
2022-08-07T03:08:29.200Z,9.98
2022-08-07T03:11:01.894Z,9.65
2022-08-07T03:13:49.510Z,10.00
2022-08-07T03:16:23.083Z,10.05
2022-08-07T03:18:58.296Z,10.13
2022-08-07T03:21:28.089Z,10.05
2022-08-07T03:24:21.159Z,9.50
2022-08-07T03:26:59.132Z,9.23
2022-08-07T03:29:38.804Z,9.75
2022-08-07T03:32:18.023Z,9.05
2022-08-07T03:35:16.746Z,8.38
2022-08-07T03:37:46.122Z,8.88
2022-08-07T03:40:30.893Z,8.77
2022-08-07T03:43:10.031Z,8.65
2022-08-07T03:45:48.587Z,9.20
2022-08-07T03:48:22.699Z,8.43
2022-08-07T03:50:57.974Z,8.35
2022-08-07T03:54:05.742Z,7.88
2022-08-07T03:56:33.031Z,8.68
2022-08-07T03:59:09.969Z,7.82
2022-08-07T04:01:50.962Z,7.63
2022-08-07T04:04:24.512Z,7.25
2022-08-07T04:07:00.153Z,6.45
2022-08-07T04:09:45.226Z,7.55
2022-08-07T04:12:28.250Z,7.75
2022-08-07T04:15:00.819Z,7.32
2022-08-07T04:18:57.225Z,7.50
2022-08-07T04:20:25.318Z,6.93
2022-08-07T04:23:01.405Z,6.60
2022-08-07T04:25:39.341Z,6.70
2022-08-07T04:28:13.293Z,6.30
2022-08-07T04:30:55.427Z,7.15
2022-08-07T04:33:36.151Z,6.38
2022-08-07T04:36:08.829Z,7.05
2022-08-07T04:38:40.654Z,6.40
2022-08-07T04:41:19.064Z,5.93
2022-08-07T04:44:14.471Z,5.80
2022-08-07T04:46:59.594Z,5.65
2022-08-07T04:49:57.789Z,6.32
2022-08-07T04:52:46.808Z,5.78
2022-08-07T04:58:13.820Z,5.50
2022-08-07T04:58:34.917Z,5.43
2022-08-07T05:01:19.143Z,6.40
2022-08-07T05:04:06.375Z,5.13
2022-08-07T05:06:51.755Z,4.90
2022-08-07T05:09:42.934Z,5.07
2022-08-07T05:12:27.267Z,4.95
2022-08-07T05:18:08.714Z,4.90
2022-08-07T05:20:43.097Z,4.68
2022-08-07T05:23:19.130Z,4.97
2022-08-07T05:26:11.505Z,5.13
2022-08-07T05:28:46.637Z,5.07
2022-08-07T05:31:24.939Z,5.22
2022-08-07T05:34:05.810Z,5.22
2022-08-07T05:36:44.666Z,4.78
2022-08-07T05:40:06.439Z,4.70
2022-08-07T05:42:34.860Z,4.90
2022-08-07T05:45:26.088Z,5.30
2022-08-07T05:48:06.338Z,4.50
2022-08-07T05:50:48.229Z,5.75
2022-08-07T05:54:13.790Z,4.75
2022-08-07T05:56:13.302Z,4.70
2022-08-07T05:58:52.815Z,4.32
2022-08-07T06:01:34.928Z,4.22
2022-08-07T06:04:09.641Z,4.97
2022-08-07T06:06:46.210Z,4.47
2022-08-07T06:09:18.892Z,4.80
2022-08-07T06:11:52.112Z,5.40
2022-08-07T06:14:30.222Z,4.38
2022-08-07T06:17:07.023Z,4.45
2022-08-07T06:19:52.006Z,4.32
2022-08-07T06:22:36.872Z,4.18
2022-08-07T06:25:21.795Z,4.15
2022-08-07T06:28:03.236Z,3.92
2022-08-07T06:30:37.950Z,4.50
2022-08-07T06:33:16.913Z,4.43
2022-08-07T06:38:58.540Z,4.05
2022-08-07T06:42:03.055Z,3.85
2022-08-07T06:44:51.430Z,4.00
2022-08-07T06:47:21.523Z,3.85
2022-08-07T06:49:58.559Z,3.65
2022-08-07T06:52:37.235Z,3.35
2022-08-07T06:55:33.475Z,3.70
2022-08-07T06:58:10.179Z,4.13
2022-08-07T07:00:52.739Z,3.67
2022-08-07T07:03:39.541Z,4.55
2022-08-07T07:06:11.004Z,4.40
2022-08-07T07:08:46.635Z,3.90
2022-08-07T07:12:08.622Z,3.72
2022-08-07T07:14:08.507Z,4.10
2022-08-07T07:16:49.790Z,3.83
2022-08-07T07:19:56.374Z,3.78
2022-08-07T07:22:35.970Z,4.57
2022-08-07T07:26:32.401Z,3.45
2022-08-07T07:28:03.386Z,3.92
2022-08-07T07:30:40.327Z,3.53
2022-08-07T07:33:13.853Z,4.22
2022-08-07T07:36:04.150Z,4.47
2022-08-07T07:38:35.887Z,3.10
2022-08-07T07:41:09.294Z,3.35
2022-08-07T07:44:14.669Z,3.28
2022-08-07T07:46:55.176Z,3.57
2022-08-07T07:50:35.613Z,3.70
2022-08-07T07:52:19.553Z,3.63
2022-08-07T07:54:51.456Z,3.70
2022-08-07T07:57:43.875Z,3.70
2022-08-07T08:00:29.192Z,3.67
2022-08-07T08:03:05.583Z,3.53
2022-08-07T08:05:51.156Z,3.80
2022-08-07T08:08:35.314Z,4.22
2022-08-07T08:11:16.279Z,3.95
2022-08-07T08:13:54.680Z,3.40
2022-08-07T08:16:35.617Z,3.60
2022-08-07T08:19:09.741Z,3.55
2022-08-07T08:22:08.076Z,3.70
2022-08-07T08:25:18.616Z,3.60
2022-08-07T08:27:57.492Z,3.78
2022-08-07T08:30:42.694Z,4.07
2022-08-07T08:33:21.915Z,3.90
2022-08-07T08:35:55.929Z,3.30
2022-08-07T08:38:40.424Z,3.42
2022-08-07T08:41:18.776Z,3.70
2022-08-07T08:43:59.300Z,3.67
2022-08-07T08:46:40.605Z,3.42
2022-08-07T08:49:32.748Z,3.50
2022-08-07T08:52:14.437Z,4.50
2022-08-07T08:55:07.741Z,3.90
2022-08-07T08:57:41.401Z,3.72
2022-08-07T09:00:12.345Z,3.90
2022-08-07T09:02:53.067Z,3.60
2022-08-07T09:05:37.818Z,3.28
2022-08-07T09:08:28.613Z,3.35
2022-08-07T09:11:14.028Z,3.63
2022-08-07T09:14:09.657Z,3.20
2022-08-07T09:16:49.894Z,3.10
2022-08-07T09:19:53.541Z,3.45
2022-08-07T09:24:28.914Z,3.20
2022-08-07T09:25:27.943Z,3.08
2022-08-07T09:28:06.158Z,3.42
2022-08-07T09:31:03.003Z,2.85
2022-08-07T09:33:57.958Z,3.20
2022-08-07T09:39:53.902Z,2.97
2022-08-07T09:42:33.280Z,2.83
2022-08-07T09:47:55.030Z,2.70
2022-08-07T09:48:19.084Z,2.63
2022-08-07T09:51:14.562Z,2.97
2022-08-07T09:54:02.344Z,2.67
2022-08-07T09:56:53.525Z,2.50
2022-08-07T10:00:01.007Z,3.40
2022-08-07T10:04:07.151Z,2.65
2022-08-07T10:06:42.166Z,2.63
2022-08-07T10:10:00.621Z,2.42
2022-08-07T10:12:53.179Z,2.60
2022-08-07T10:15:56.123Z,3.03
2022-08-07T10:22:14.161Z,2.50
2022-08-07T10:24:57.605Z,2.58
2022-08-07T10:30:20.074Z,2.58
2022-08-07T10:34:06.061Z,2.78
2022-08-07T10:36:30.277Z,4.07
2022-08-07T10:39:20.009Z,3.38
2022-08-07T10:42:09.335Z,3.13
2022-08-07T10:45:01.433Z,3.10
2022-08-07T10:47:53.887Z,3.13
2022-08-07T10:50:28.886Z,2.90
2022-08-07T10:53:09.036Z,2.70
2022-08-07T10:55:50.410Z,2.67
2022-08-07T10:58:40.314Z,3.28
2022-08-07T11:01:23.945Z,2.70
2022-08-07T11:04:23.334Z,2.47
2022-08-07T11:07:02.031Z,2.75
2022-08-07T11:10:09.293Z,2.85
2022-08-07T11:12:35.534Z,3.10
2022-08-07T11:15:14.547Z,2.50
2022-08-07T11:17:53.802Z,2.92
2022-08-07T11:20:27.592Z,2.80
2022-08-07T11:23:04.350Z,2.83
2022-08-07T11:25:48.034Z,3.10
2022-08-07T11:28:26.593Z,2.80
2022-08-07T11:31:00.955Z,2.63
2022-08-07T11:36:39.367Z,2.80
2022-08-07T11:39:20.635Z,2.80
2022-08-07T11:42:03.186Z,3.28
2022-08-07T11:44:52.760Z,2.78
2022-08-07T11:47:56.450Z,3.33
2022-08-07T11:50:44.657Z,3.00
2022-08-07T11:53:43.371Z,3.33
2022-08-07T11:56:53.044Z,4.13
2022-08-07T12:00:12.226Z,3.92
2022-08-07T12:03:44.698Z,3.80
2022-08-07T12:06:39.545Z,6.47
2022-08-07T12:09:16.454Z,4.70
2022-08-07T12:12:08.764Z,5.00
2022-08-07T12:15:01.132Z,6.72
2022-08-07T12:17:58.556Z,7.40
2022-08-07T12:20:34.786Z,6.63
2022-08-07T12:24:07.707Z,6.10
2022-08-07T12:26:46.097Z,6.22
2022-08-07T12:29:37.887Z,6.10
2022-08-07T12:32:17.105Z,6.25
2022-08-07T12:34:55.846Z,6.18
2022-08-07T12:37:28.495Z,6.70
2022-08-07T12:40:46.618Z,5.78
2022-08-07T12:44:01.486Z,6.28
2022-08-07T12:46:15.913Z,5.50
2022-08-07T12:49:10.262Z,6.10
2022-08-07T12:52:12.023Z,5.45
2022-08-07T12:54:55.003Z,5.13
2022-08-07T12:58:00.283Z,5.03
2022-08-07T13:00:32.759Z,4.85
2022-08-07T13:03:55.059Z,4.20
2022-08-07T13:07:00.520Z,4.38
2022-08-07T13:10:28.620Z,4.45
2022-08-07T13:12:52.278Z,4.05
2022-08-07T13:15:34.067Z,3.97
2022-08-07T13:18:28.269Z,4.65
2022-08-07T13:21:07.765Z,4.10
2022-08-07T13:24:01.441Z,3.58
2022-08-07T13:26:41.790Z,3.92
2022-08-07T13:29:20.901Z,3.70
2022-08-07T13:31:57.274Z,4.28
2022-08-07T13:34:44.786Z,4.45
2022-08-07T13:37:24.554Z,4.20
2022-08-07T13:40:35.061Z,3.58
2022-08-07T13:43:00.832Z,3.60
2022-08-07T13:46:12.829Z,3.88
2022-08-07T13:48:34.239Z,3.88
2022-08-07T13:51:28.547Z,3.45
2022-08-07T13:54:00.853Z,3.60
2022-08-07T13:56:41.133Z,3.30
2022-08-07T13:59:25.606Z,3.30
2022-08-07T14:02:07.731Z,3.38
2022-08-07T14:04:50.107Z,2.97
2022-08-07T14:07:27.987Z,2.50
2022-08-07T14:10:17.450Z,3.22
2022-08-07T14:12:55.818Z,3.22
2022-08-07T14:15:32.132Z,2.72
2022-08-07T14:18:24.080Z,2.70
2022-08-07T14:21:08.236Z,2.35
2022-08-07T14:24:00.538Z,2.35
2022-08-07T14:26:37.342Z,2.67
2022-08-07T14:30:06.413Z,2.47
2022-08-07T14:32:04.915Z,2.80
2022-08-07T14:34:46.064Z,2.63
2022-08-07T14:37:19.065Z,2.75
2022-08-07T14:40:15.753Z,3.42
2022-08-07T14:43:55.594Z,3.75
2022-08-07T14:45:46.617Z,4.00
2022-08-07T14:48:22.317Z,3.38
2022-08-07T14:51:00.595Z,3.00
2022-08-07T14:54:08.558Z,3.47
2022-08-07T14:56:30.157Z,3.28
2022-08-07T14:59:13.829Z,3.70
2022-08-07T15:01:58.448Z,3.33
2022-08-07T15:04:28.888Z,3.53
2022-08-07T15:07:00.812Z,3.10
2022-08-07T15:09:57.264Z,3.75
2022-08-07T15:15:23.770Z,3.10
2022-08-07T15:18:02.597Z,2.92
2022-08-07T15:20:55.497Z,3.05
2022-08-07T15:25:02.042Z,3.17
2022-08-07T15:26:28.627Z,3.40
2022-08-07T15:32:01.595Z,2.80
2022-08-07T15:34:37.868Z,2.67
2022-08-07T15:37:27.421Z,3.25
2022-08-07T15:40:01.102Z,3.53
2022-08-07T15:42:51.840Z,3.00
2022-08-07T15:45:55.858Z,3.28
2022-08-07T15:48:37.469Z,3.38
2022-08-07T15:54:19.407Z,4.00
2022-08-07T15:56:50.388Z,4.13
2022-08-07T15:59:39.467Z,3.97
2022-08-07T16:02:15.675Z,4.13
2022-08-07T16:04:45.832Z,4.45
2022-08-07T16:08:30.619Z,4.72
2022-08-07T16:10:14.876Z,4.55
2022-08-07T16:13:04.661Z,4.70
2022-08-07T16:15:58.976Z,4.30
2022-08-07T16:18:50.779Z,4.78
2022-08-07T16:21:56.990Z,4.90
2022-08-07T16:24:34.938Z,5.93
2022-08-07T16:27:20.890Z,6.57
2022-08-07T16:30:30.171Z,6.00
2022-08-07T16:33:00.442Z,6.38
2022-08-07T16:36:03.001Z,6.25
2022-08-07T16:39:01.016Z,6.45
2022-08-07T16:41:54.308Z,6.13
2022-08-07T16:45:03.846Z,6.43
2022-08-07T16:47:56.856Z,6.03
2022-08-07T16:50:52.557Z,5.63
2022-08-07T16:56:57.218Z,5.80
2022-08-07T16:59:46.414Z,5.40
2022-08-07T17:02:52.267Z,4.88
2022-08-07T17:06:28.739Z,5.28
2022-08-07T17:09:08.835Z,5.28
2022-08-07T17:12:03.921Z,5.68
2022-08-07T17:14:45.335Z,5.28
2022-08-07T17:17:46.612Z,5.78
2022-08-07T17:20:30.003Z,5.57
2022-08-07T17:23:08.633Z,5.88
2022-08-07T17:25:54.732Z,5.13
2022-08-07T17:28:38.139Z,4.95
2022-08-07T17:31:17.085Z,6.32
2022-08-07T17:34:18.159Z,5.55
2022-08-07T17:39:58.892Z,7.45
2022-08-07T17:42:59.483Z,6.43
2022-08-07T17:45:35.334Z,6.60
2022-08-07T17:50:54.478Z,6.72
2022-08-07T17:54:01.474Z,5.47
2022-08-07T17:56:28.848Z,5.70
2022-08-07T17:59:10.713Z,8.20
2022-08-07T18:01:51.753Z,5.93
2022-08-07T18:04:36.016Z,5.32
2022-08-07T18:07:20.898Z,5.60
2022-08-07T18:10:07.369Z,5.68
2022-08-07T18:13:06.875Z,6.72
2022-08-07T18:15:57.125Z,6.72
2022-08-07T18:18:44.995Z,5.72
2022-08-07T18:21:51.637Z,6.07
2022-08-07T18:24:28.509Z,5.95
2022-08-07T18:27:38.414Z,6.70
2022-08-07T18:30:30.807Z,5.55
2022-08-07T18:33:37.851Z,6.07
2022-08-07T18:36:18.428Z,6.07
2022-08-07T18:40:09.058Z,5.50
2022-08-07T18:42:18.926Z,5.93
2022-08-07T18:48:01.560Z,5.35
2022-08-07T18:50:55.788Z,6.20
2022-08-07T18:53:39.923Z,5.90
2022-08-07T18:56:21.161Z,6.20
2022-08-07T18:59:47.342Z,5.85
2022-08-07T19:02:34.051Z,6.88
2022-08-07T19:05:24.734Z,6.25
2022-08-07T19:08:03.933Z,5.85
2022-08-07T19:10:51.955Z,5.82
2022-08-07T19:13:27.700Z,5.50
2022-08-07T19:16:43.129Z,6.32
2022-08-07T19:19:06.105Z,5.93
2022-08-07T19:21:56.088Z,6.30
2022-08-07T19:24:43.325Z,6.60
2022-08-07T19:28:31.057Z,5.75
2022-08-07T19:30:55.555Z,4.82
2022-08-07T19:33:12.775Z,4.40
2022-08-07T19:35:45.253Z,5.22
2022-08-07T19:38:18.846Z,6.78
2022-08-07T19:40:52.480Z,5.10
2022-08-07T19:43:49.000Z,6.22
2022-08-07T19:46:35.608Z,5.60
2022-08-07T19:49:08.419Z,6.78
2022-08-07T19:51:52.161Z,7.25
2022-08-07T19:54:35.150Z,6.20
2022-08-07T19:58:02.300Z,6.82
2022-08-07T20:00:08.887Z,6.60
2022-08-07T20:02:52.323Z,6.28
2022-08-07T20:05:27.813Z,6.55
2022-08-07T20:08:01.576Z,5.20
2022-08-07T20:10:51.945Z,4.93
2022-08-07T20:13:41.791Z,6.50
2022-08-07T20:16:15.836Z,5.88
2022-08-07T20:19:12.089Z,4.72
2022-08-07T20:21:47.672Z,5.35
2022-08-07T20:24:23.247Z,6.18
2022-08-07T20:26:56.471Z,5.82
2022-08-07T20:29:48.093Z,5.10
2022-08-07T20:32:25.557Z,4.70
2022-08-07T20:35:01.442Z,5.45
2022-08-07T20:37:57.666Z,6.05
2022-08-07T20:40:34.288Z,5.80
2022-08-07T20:46:26.873Z,5.72
2022-08-07T20:48:38.615Z,6.15
2022-08-07T20:51:29.990Z,5.57
2022-08-07T20:54:07.163Z,5.40
2022-08-07T20:56:46.030Z,5.28
2022-08-07T20:59:27.225Z,6.07
2022-08-07T21:02:34.218Z,5.05
2022-08-07T21:05:10.190Z,5.78
2022-08-07T21:07:49.735Z,6.80
2022-08-07T21:10:29.449Z,7.28
2022-08-07T21:13:04.499Z,6.60
2022-08-07T21:15:47.856Z,5.40
2022-08-07T21:18:33.443Z,5.40
2022-08-07T21:21:04.864Z,5.38
2022-08-07T21:23:50.466Z,6.28
2022-08-07T21:26:30.743Z,6.88
2022-08-07T21:29:06.797Z,7.55
2022-08-07T21:32:43.747Z,7.13
2022-08-07T21:34:46.344Z,6.95
2022-08-07T21:37:22.946Z,7.03
2022-08-07T21:39:59.426Z,7.65
2022-08-07T21:42:45.966Z,7.05
2022-08-07T21:46:08.452Z,7.53
2022-08-07T21:48:32.464Z,7.70
2022-08-07T21:51:20.401Z,7.93
2022-08-07T21:53:56.436Z,7.40
2022-08-07T21:56:47.169Z,7.83
2022-08-07T22:00:03.035Z,7.28
2022-08-07T22:02:32.199Z,7.55
2022-08-07T22:05:04.441Z,9.65
2022-08-07T22:07:48.643Z,8.55
2022-08-07T22:10:32.781Z,8.57
2022-08-07T22:13:13.758Z,9.02
2022-08-07T22:16:39.780Z,9.98
2022-08-07T22:18:43.305Z,9.65
2022-08-07T22:21:20.484Z,9.60
2022-08-07T22:23:56.150Z,9.68
2022-08-07T22:26:30.682Z,10.15
2022-08-07T22:29:14.011Z,11.00
2022-08-07T22:32:00.305Z,11.85
2022-08-07T22:34:52.949Z,10.82
2022-08-07T22:38:03.486Z,11.05
2022-08-07T22:40:27.929Z,9.57
2022-08-07T22:43:09.419Z,10.25
2022-08-07T22:46:21.847Z,8.05
2022-08-07T22:49:07.705Z,7.97
2022-08-07T22:52:07.004Z,7.50
2022-08-07T22:55:17.203Z,7.75
2022-08-07T22:58:27.685Z,7.38
2022-08-07T23:01:16.500Z,7.38
2022-08-07T23:03:58.278Z,7.35
2022-08-07T23:06:50.005Z,7.82
2022-08-07T23:10:03.848Z,7.60
2022-08-07T23:12:37.987Z,7.18
2022-08-07T23:16:06.063Z,6.63
2022-08-07T23:18:25.997Z,8.48
2022-08-07T23:21:20.953Z,7.78
2022-08-07T23:24:20.201Z,8.00
2022-08-07T23:27:14.624Z,8.98
2022-08-07T23:30:39.125Z,7.97
2022-08-07T23:34:36.191Z,8.23
2022-08-07T23:36:17.312Z,8.10
2022-08-07T23:39:08.565Z,8.30
2022-08-07T23:42:01.677Z,8.15
2022-08-07T23:45:15.086Z,8.35
2022-08-07T23:48:17.043Z,8.15
2022-08-07T23:50:54.508Z,6.53
2022-08-07T23:53:51.202Z,6.85
2022-08-07T23:56:28.064Z,5.32
